< < Back
Terminal Aerodrome Forecast


Current Version              Previous Versions:   1  2  3  4  5  6  7  8  9  

Terminal Aerodrome Forecast

355
FTUS42 KTAE 032300
TAFDHN
TAF
KDHN 032331Z 0400/0424 21007KT P6SM SCT030
     FM040600 19005KT 2SM BR OVC006
     FM040900 19003KT 1/4SM FG OVC001
     FM041400 20008KT 4SM BR OVC015
     FM041700 20010G15KT P6SM SCT025=

Latest METAR

400
SAUS70 KWBC 041200 RRE
MTRDHN
METAR KDHN 041153Z 19006KT 7SM OVC004 17/17 A3011 RMK AO2 SLP191
T01670167 10172 20161 53006


USA.gov is the U.S. government's official web portal to all federal, state and local government web resources and services.